createdAt,value
2023-11-18T00:39:36.756Z,4.46
2023-11-18T00:46:59.383Z,4.44
2023-11-18T00:50:15.292Z,4.42
2023-11-18T00:54:14.750Z,4.42
2023-11-18T00:57:54.389Z,4.39
2023-11-18T01:01:14.712Z,4.38
2023-11-18T01:04:53.931Z,4.37
2023-11-18T01:08:33.759Z,4.36
2023-11-18T01:12:15.649Z,4.34
2023-11-18T02:14:07.253Z,4.05
2023-11-18T06:00:22.982Z,3.41
2023-11-18T06:02:57.834Z,3.40
2023-11-18T06:05:27.772Z,3.38
2023-11-18T06:07:56.671Z,3.34
2023-11-18T06:10:26.365Z,3.30
2023-11-18T06:12:56.392Z,3.24
2023-11-18T06:15:26.149Z,3.19
2023-11-18T06:17:57.362Z,3.16
2023-11-18T06:20:26.191Z,3.13
2023-11-18T06:22:54.943Z,3.09
2023-11-18T06:25:27.553Z,3.06
2023-11-18T06:27:56.353Z,3.04
2023-11-18T06:30:25.190Z,3.03
2023-11-18T06:32:53.931Z,3.02
2023-11-18T06:35:23.130Z,3.02
2023-11-18T06:37:52.086Z,3.05
2023-11-18T06:40:23.547Z,3.08
2023-11-18T06:42:52.459Z,3.12
2023-11-18T06:45:23.734Z,3.14
2023-11-18T06:47:52.634Z,3.16
2023-11-18T06:50:25.933Z,3.21
2023-11-18T06:52:57.238Z,3.24
2023-11-18T06:55:28.398Z,3.28
2023-11-18T06:57:58.035Z,3.31
2023-11-18T07:00:29.617Z,3.34
2023-11-18T07:02:59.224Z,3.38
2023-11-18T07:05:28.116Z,3.43
2023-11-18T07:07:57.427Z,3.49
2023-11-18T07:10:27.145Z,3.54
2023-11-18T07:12:56.384Z,3.57
2023-11-18T07:15:25.307Z,3.60
2023-11-18T07:17:56.871Z,3.63
2023-11-18T07:20:25.927Z,3.64
2023-11-18T07:22:55.763Z,3.68
2023-11-18T07:25:24.542Z,3.72
2023-11-18T07:27:53.306Z,3.75
2023-11-18T07:30:22.184Z,3.76
2023-11-18T07:32:52.564Z,3.80
2023-11-18T07:35:21.326Z,3.80
2023-11-18T07:37:50.571Z,3.80
2023-11-18T07:40:23.779Z,3.82
2023-11-18T07:42:52.443Z,3.83
2023-11-18T07:45:21.256Z,3.84
2023-11-18T07:47:52.495Z,3.85
2023-11-18T07:50:22.811Z,3.89
2023-11-18T07:52:52.244Z,3.92
2023-11-18T07:55:21.113Z,3.96
2023-11-18T07:57:49.791Z,3.99
2023-11-18T08:00:19.322Z,4.02
2023-11-18T08:02:48.463Z,4.06
2023-11-18T08:05:18.585Z,4.08
2023-11-18T08:07:47.256Z,4.14
2023-11-18T08:10:20.847Z,4.17
2023-11-18T08:12:49.991Z,4.19
2023-11-18T08:15:20.358Z,4.20
2023-11-18T08:17:50.746Z,4.21
2023-11-18T08:20:25.425Z,4.21
2023-11-18T08:22:54.729Z,4.20
2023-11-18T08:25:23.830Z,4.21
2023-11-18T08:27:53.014Z,4.22
2023-11-18T08:30:22.422Z,4.18
2023-11-18T08:32:51.201Z,4.17
2023-11-18T08:35:20.294Z,4.18
2023-11-18T08:37:49.732Z,4.18
2023-11-18T08:40:27.418Z,4.19
2023-11-18T08:42:57.910Z,4.20
2023-11-18T08:45:31.345Z,4.23
2023-11-18T08:48:09.857Z,4.27
2023-11-18T08:50:42.460Z,4.27
2023-11-18T08:53:14.571Z,4.27
2023-11-18T08:55:53.329Z,4.28
2023-11-18T08:58:25.429Z,4.30
2023-11-18T09:01:15.964Z,4.32
2023-11-18T09:03:50.489Z,4.35
2023-11-18T09:06:27.801Z,4.36
2023-11-18T09:08:59.661Z,4.40
2023-11-18T09:11:34.352Z,4.46
2023-11-18T09:14:05.721Z,4.49
2023-11-18T09:16:40.084Z,4.53
2023-11-18T09:19:09.577Z,4.55
2023-11-18T09:21:38.607Z,4.58
2023-11-18T09:24:13.478Z,4.60
2023-11-18T09:26:45.670Z,4.59
2023-11-18T09:29:16.155Z,4.61
2023-11-18T09:31:51.604Z,4.63
2023-11-18T09:34:28.770Z,4.68
2023-11-18T09:36:57.753Z,4.69
2023-11-18T09:39:39.554Z,4.68
2023-11-18T09:42:13.095Z,4.68
2023-11-18T09:44:42.491Z,4.68
2023-11-18T09:47:17.877Z,4.67
2023-11-18T09:49:58.002Z,4.66
2023-11-18T09:52:28.329Z,4.66
2023-11-18T09:55:21.450Z,4.66
2023-11-18T09:58:01.454Z,4.65
2023-11-18T10:00:35.021Z,4.66
2023-11-18T10:03:04.872Z,4.69
2023-11-18T10:05:35.393Z,4.71
2023-11-18T10:08:07.411Z,4.74
2023-11-18T10:10:47.238Z,4.77
2023-11-18T10:13:26.033Z,4.85
2023-11-18T10:15:55.135Z,4.91
2023-11-18T10:18:25.189Z,4.98
2023-11-18T10:20:58.630Z,5.04
2023-11-18T10:23:29.621Z,5.13
2023-11-18T10:26:02.799Z,5.21
2023-11-18T10:28:39.277Z,5.26
2023-11-18T10:31:11.281Z,5.29
2023-11-18T10:33:45.096Z,5.36
2023-11-18T10:36:25.798Z,5.40
2023-11-18T10:38:57.514Z,5.48
2023-11-18T10:41:26.907Z,5.51
2023-11-18T10:44:16.239Z,5.53
2023-11-18T10:46:56.228Z,5.58
2023-11-18T10:49:25.968Z,5.60
2023-11-18T10:51:56.690Z,5.59
2023-11-18T10:54:27.927Z,5.62
2023-11-18T10:56:59.995Z,5.66
2023-11-18T10:59:28.808Z,5.71
2023-11-18T11:01:59.554Z,5.70
2023-11-18T11:04:44.236Z,5.72
2023-11-18T11:07:15.854Z,5.72
2023-11-18T11:09:47.579Z,5.73
2023-11-18T11:12:19.464Z,5.81
2023-11-18T11:15:01.499Z,5.89
2023-11-18T11:17:32.570Z,6.01
2023-11-18T11:20:19.374Z,6.04
2023-11-18T11:23:12.596Z,6.05
2023-11-18T11:26:36.398Z,6.08
2023-11-18T11:29:35.961Z,6.03
2023-11-18T11:32:29.675Z,5.99
2023-11-18T11:35:09.848Z,5.94
2023-11-18T11:37:39.574Z,5.93
2023-11-18T11:40:11.978Z,5.97
2023-11-18T11:42:44.256Z,5.99
2023-11-18T11:45:21.706Z,5.97
2023-11-18T11:47:53.231Z,5.93
2023-11-18T11:50:33.954Z,5.91
2023-11-18T11:53:18.395Z,5.86
2023-11-18T11:56:06.615Z,5.77
2023-11-18T11:58:40.196Z,5.64
2023-11-18T12:01:26.602Z,5.55
2023-11-18T12:03:59.678Z,5.49
2023-11-18T12:06:29.493Z,5.45
2023-11-18T12:08:58.557Z,5.38
2023-11-18T12:11:31.134Z,5.37
2023-11-18T12:14:14.786Z,5.43
2023-11-18T12:17:22.812Z,5.45
2023-11-18T12:19:57.938Z,5.49
2023-11-18T12:22:36.403Z,5.53
2023-11-18T12:25:07.787Z,5.57
2023-11-18T12:27:42.535Z,5.60
2023-11-18T12:30:17.285Z,5.64
2023-11-18T12:33:02.693Z,5.69
2023-11-18T12:35:45.845Z,5.72
2023-11-18T12:38:58.232Z,5.75
2023-11-18T12:41:39.826Z,5.73
2023-11-18T12:44:20.710Z,5.72
2023-11-18T12:47:16.411Z,5.74
2023-11-18T12:49:51.526Z,5.75
2023-11-18T12:52:20.720Z,5.76
2023-11-18T12:54:57.793Z,5.75
2023-11-18T12:57:33.268Z,5.75
2023-11-18T13:00:02.539Z,5.81
2023-11-18T13:02:34.081Z,5.81
2023-11-18T13:05:10.942Z,5.81
2023-11-18T13:07:41.359Z,5.80
2023-11-18T13:10:10.910Z,5.78
2023-11-18T13:12:40.769Z,5.76
2023-11-18T13:15:11.177Z,5.76
2023-11-18T13:17:42.402Z,5.77
2023-11-18T13:20:16.291Z,5.79
2023-11-18T13:22:48.304Z,5.76
2023-11-18T13:25:19.018Z,5.76
2023-11-18T13:27:48.146Z,5.77
2023-11-18T13:30:19.033Z,5.79
2023-11-18T13:32:51.085Z,5.81
2023-11-18T13:35:21.809Z,5.83
2023-11-18T13:37:52.279Z,5.85
2023-11-18T13:40:21.246Z,5.91
2023-11-18T13:42:50.187Z,5.91
2023-11-18T13:45:30.978Z,5.93
2023-11-18T13:48:06.501Z,5.99
2023-11-18T13:50:39.174Z,6.07
2023-11-18T13:53:08.524Z,6.09
2023-11-18T13:55:40.366Z,6.07
2023-11-18T13:58:12.128Z,6.06
2023-11-18T14:00:42.328Z,6.01
2023-11-18T14:03:13.676Z,5.98
2023-11-18T14:05:48.391Z,6.00
2023-11-18T14:08:21.375Z,6.03
2023-11-18T14:11:02.162Z,6.06
2023-11-18T14:13:36.379Z,6.07
2023-11-18T14:16:11.259Z,6.09
2023-11-18T14:18:43.452Z,6.07
2023-11-18T14:21:15.682Z,6.06
2023-11-18T14:23:44.609Z,6.05
2023-11-18T14:26:13.753Z,6.01
2023-11-18T14:28:44.178Z,5.96
2023-11-18T14:31:12.919Z,5.92
2023-11-18T14:33:41.718Z,5.84
2023-11-18T14:36:11.261Z,5.82
2023-11-18T14:38:40.113Z,5.78
2023-11-18T14:41:09.477Z,5.72
2023-11-18T14:43:38.564Z,5.63
2023-11-18T14:46:09.583Z,5.54
2023-11-18T14:48:39.003Z,5.50
2023-11-18T14:51:08.805Z,5.44
2023-11-18T14:53:39.100Z,5.38
2023-11-18T14:56:08.780Z,5.33
2023-11-18T14:58:37.802Z,5.29
2023-11-18T15:01:10.315Z,5.26
2023-11-18T15:03:39.146Z,5.23
2023-11-18T15:06:11.759Z,5.19
2023-11-18T15:08:45.917Z,5.14
2023-11-18T15:11:24.638Z,5.10
